Time;durP1;ratioP1;P1;durP2;ratioP2;P2;SDS_P1;SDS_P2;PMS_P1;PMS_P2;Temp;Humidity;BMP_temperature;BMP_pressure;BME280_temperature;BME280_humidity;BME280_pressure;Samples;Min_cycle;Max_cycle;Signal;HPM_P1;HPM_P2
2022/05/28 00:00:32;;;;;;;6.60;6.30;;;;;;;15.41;75.26;100459.88;5033476;28;20086;-62
2022/05/28 00:02:58;;;;;;;6.60;6.30;;;;;;;15.25;75.57;100450.44;5033843;28;20512;-61
2022/05/28 00:05:23;;;;;;;6.40;6.10;;;;;;;15.18;75.72;100445.09;5033744;28;20042;-61
2022/05/28 00:07:49;;;;;;;6.55;6.25;;;;;;;15.13;75.59;100454.75;5034254;28;20072;-61
2022/05/28 00:10:18;;;;;;;6.53;6.22;;;;;;;15.02;76.38;100468.75;5033248;28;20118;-61
2022/05/28 00:12:43;;;;;;;6.40;6.10;;;;;;;15.12;75.82;100475.31;5027021;28;20025;-61
2022/05/28 00:15:10;;;;;;;6.53;6.22;;;;;;;14.96;75.85;100481.06;5033023;28;20034;-62
2022/05/28 00:17:36;;;;;;;6.50;6.20;;;;;;;14.84;76.26;100490.72;5021065;28;20029;-62
2022/05/28 00:20:03;;;;;;;6.40;6.10;;;;;;;14.79;76.68;100501.19;5033888;28;20026;-62
2022/05/28 00:22:28;;;;;;;6.65;6.35;;;;;;;14.76;76.10;100507.78;5033533;28;20109;-62
2022/05/28 00:24:57;;;;;;;6.60;6.30;;;;;;;14.74;75.66;100517.00;5033826;28;20516;-61
2022/05/28 00:27:22;;;;;;;6.60;6.30;;;;;;;14.80;75.75;100524.19;5037571;28;20032;-63
2022/05/28 00:29:48;;;;;;;6.60;6.30;;;;;;;14.59;76.18;100517.16;5033612;28;20021;-63
2022/05/28 00:32:13;;;;;;;6.70;6.40;;;;;;;14.43;76.87;100520.16;5032165;28;20084;-63
2022/05/28 00:34:40;;;;;;;6.50;6.20;;;;;;;14.46;76.05;100519.78;5019671;28;20017;-62
2022/05/28 00:37:07;;;;;;;6.50;6.20;;;;;;;14.33;76.37;100510.69;5024211;28;20018;-62
2022/05/28 00:39:32;;;;;;;6.60;6.30;;;;;;;14.28;76.41;100513.13;5042220;28;20025;-62
2022/05/28 00:41:58;;;;;;;6.53;6.22;;;;;;;14.15;77.08;100502.38;5033105;28;20047;-62
2022/05/28 00:44:24;;;;;;;6.70;6.40;;;;;;;14.05;77.71;100508.09;5036216;28;20111;-62
2022/05/28 00:46:53;;;;;;;6.60;6.30;;;;;;;14.18;76.78;100511.88;5032583;28;20034;-62
2022/05/28 00:49:25;;;;;;;6.18;5.95;;;;;;;14.14;77.13;100503.41;5033254;28;20029;-62
2022/05/28 00:51:53;;;;;;;6.40;6.10;;;;;;;14.00;77.82;100502.53;5033138;28;20022;-61
2022/05/28 00:54:19;;;;;;;6.50;6.20;;;;;;;14.03;77.26;100496.00;5027730;28;20028;-63
2022/05/28 00:56:45;;;;;;;6.80;6.50;;;;;;;13.99;77.29;100495.56;5029032;28;20053;-63
2022/05/28 00:59:10;;;;;;;6.50;6.20;;;;;;;13.93;77.30;100501.66;5032830;28;20017;-61
2022/05/28 01:01:41;;;;;;;6.63;6.32;;;;;;;13.91;77.56;100503.72;5036878;28;20389;-62
2022/05/28 01:04:31;;;;;;;6.60;6.30;;;;;;;13.90;77.62;100496.75;5020399;28;20025;-62
2022/05/28 01:07:03;;;;;;;6.50;6.20;;;;;;;13.93;77.42;100501.66;5022854;28;20025;-61
2022/05/28 01:09:47;;;;;;;6.45;6.15;;;;;;;13.72;77.74;100507.06;5032754;28;20071;-62
2022/05/28 01:12:17;;;;;;;6.50;6.20;;;;;;;13.52;78.33;100496.31;5032735;28;20104;-62
2022/05/28 01:14:55;;;;;;;6.50;6.20;;;;;;;13.55;77.34;100495.91;5030192;28;20381;-61
2022/05/28 01:17:31;;;;;;;6.60;6.30;;;;;;;13.52;77.05;100494.47;5025649;28;20033;-62
2022/05/28 01:20:02;;;;;;;6.55;6.25;;;;;;;13.43;76.45;100492.94;5026980;28;20022;-63
2022/05/28 01:23:09;;;;;;;6.57;6.28;;;;;;;13.41;76.60;100483.50;5016114;28;20099;-62
2022/05/28 01:25:52;;;;;;;6.40;6.10;;;;;;;13.40;76.34;100476.53;5030971;28;20523;-62
2022/05/28 01:28:24;;;;;;;6.30;6.00;;;;;;;13.39;75.92;100467.72;5032631;28;20025;-61
2022/05/28 01:30:52;;;;;;;6.10;5.90;;;;;;;13.40;76.11;100458.69;5021877;28;20053;-63
2022/05/28 01:33:19;;;;;;;6.40;6.10;;;;;;;13.19;76.61;100459.53;5032414;28;20025;-63
2022/05/28 01:35:46;;;;;;;6.60;6.30;;;;;;;13.18;76.99;100465.06;5042820;28;20028;-62
2022/05/28 01:38:14;;;;;;;6.60;6.30;;;;;;;13.24;76.85;100459.00;5031202;28;20025;-61
2022/05/28 01:40:41;;;;;;;6.25;5.97;;;;;;;13.38;75.68;100452.75;5032062;28;20025;-61
2022/05/28 01:43:10;;;;;;;6.50;6.20;;;;;;;13.23;76.38;100463.50;5026302;28;20499;-61
2022/05/28 01:45:38;;;;;;;6.45;6.15;;;;;;;13.17;76.56;100471.41;5032021;28;20049;-62
2022/05/28 01:48:06;;;;;;;6.07;5.88;;;;;;;13.16;76.64;100469.78;5022492;28;20025;-63
2022/05/28 01:50:43;;;;;;;6.50;6.20;;;;;;;13.11;76.90;100472.19;5029101;28;20104;-61
2022/05/28 01:54:06;;;;;;;6.20;5.90;;;;;;;13.02;77.26;100482.16;5032609;28;20485;-61
2022/05/28 01:56:00;;;;;;;6.22;6.00;;;;;;;12.95;77.71;100474.09;5031042;28;20037;-62
2022/05/28 01:58:25;;;;;;;6.30;6.00;;;;;;;12.92;77.72;100457.66;5032234;28;20149;-62
2022/05/28 02:00:51;;;;;;;6.07;5.88;;;;;;;12.95;77.36;100447.47;5024834;28;20088;-62
2022/05/28 02:03:17;;;;;;;6.20;5.95;;;;;;;12.93;77.91;100448.69;5025342;28;20033;-62
2022/05/28 02:05:43;;;;;;;6.20;5.93;;;;;;;12.92;77.36;100447.84;5030144;28;20033;-62
2022/05/28 02:08:08;;;;;;;6.10;5.90;;;;;;;12.94;77.42;100448.50;5032082;28;20063;-62
2022/05/28 02:10:37;;;;;;;6.43;6.13;;;;;;;13.06;76.59;100450.63;5040549;28;20025;-61
2022/05/28 02:13:22;;;;;;;6.20;5.97;;;;;;;12.90;77.48;100441.06;5029531;28;20807;-61
2022/05/28 02:16:02;;;;;;;6.55;6.25;;;;;;;12.91;77.57;100432.06;5029920;28;20029;-62
2022/05/28 02:18:43;;;;;;;6.00;5.80;;;;;;;12.99;77.54;100431.91;5024829;28;20033;-61
2022/05/28 02:21:16;;;;;;;6.32;6.03;;;;;;;13.06;76.79;100431.97;5031601;28;20041;-62
2022/05/28 02:23:56;;;;;;;6.53;6.22;;;;;;;12.98;77.05;100444.41;5018542;28;20484;-62
2022/05/28 02:26:33;;;;;;;6.43;6.13;;;;;;;13.03;76.32;100443.84;5035174;28;20431;-62
2022/05/28 02:29:00;;;;;;;6.60;6.30;;;;;;;13.05;76.95;100456.97;5031708;28;20041;-61
2022/05/28 02:31:29;;;;;;;6.40;6.10;;;;;;;12.94;77.14;100467.13;5031005;28;20026;-62
2022/05/28 02:33:55;;;;;;;5.95;5.75;;;;;;;12.89;77.24;100482.03;5031294;28;20029;-61
2022/05/28 02:36:20;;;;;;;6.50;6.20;;;;;;;13.02;76.31;100484.81;5016081;28;20033;-61
2022/05/28 02:38:46;;;;;;;6.30;6.00;;;;;;;13.11;75.78;100474.84;5031260;28;20041;-61
2022/05/28 02:41:12;;;;;;;6.32;6.03;;;;;;;13.04;76.33;100479.28;5031411;28;20053;-61
2022/05/28 02:43:38;;;;;;;6.10;5.90;;;;;;;13.41;75.08;100481.66;5034392;28;20029;-60
2022/05/28 02:46:05;;;;;;;6.97;6.68;;;;;;;13.07;76.86;100474.38;5029654;28;20045;-62
2022/05/28 02:48:31;;;;;;;6.43;6.13;;;;;;;13.33;76.14;100479.16;5031509;28;20445;-61
2022/05/28 02:51:21;;;;;;;6.10;5.90;;;;;;;13.93;73.76;100477.66;5031328;28;20095;-61
2022/05/28 02:53:52;;;;;;;6.40;6.10;;;;;;;14.26;72.39;100482.34;5025838;28;20073;-61
2022/05/28 02:56:18;;;;;;;6.57;6.28;;;;;;;15.05;69.16;100471.81;5024306;28;20040;-61
2022/05/28 02:58:44;;;;;;;6.50;6.20;;;;;;;15.28;67.73;100465.28;5031195;28;20040;-62
2022/05/28 03:01:27;;;;;;;6.50;6.20;;;;;;;15.61;65.57;100467.88;5031735;28;20029;-62
2022/05/28 03:03:54;;;;;;;6.40;6.10;;;;;;;16.03;63.53;100471.91;5031164;28;20163;-62
2022/05/28 03:06:20;;;;;;;6.68;6.38;;;;;;;15.25;66.76;100479.03;5031235;28;20047;-62
2022/05/28 03:08:46;;;;;;;6.55;6.25;;;;;;;15.21;67.65;100489.31;5018909;28;20489;-63
2022/05/28 03:11:11;;;;;;;6.60;6.30;;;;;;;16.61;62.97;100495.94;5021735;28;20021;-63
2022/05/28 03:13:37;;;;;;;6.60;6.30;;;;;;;18.34;55.49;100493.34;5030850;28;20030;-61
2022/05/28 03:16:04;;;;;;;6.60;6.30;;;;;;;20.12;50.11;100495.00;5031403;28;20029;-62
2022/05/28 03:18:29;;;;;;;6.60;6.30;;;;;;;21.22;46.55;100501.06;5034469;28;20699;-62
2022/05/28 03:20:55;;;;;;;6.50;6.20;;;;;;;21.94;44.44;100495.66;5030585;28;20048;-63
2022/05/28 03:23:20;;;;;;;6.70;6.40;;;;;;;22.42;42.64;100504.13;5031374;28;20017;-63
2022/05/28 03:25:46;;;;;;;6.70;6.40;;;;;;;23.32;40.90;100506.06;5029301;28;20475;-63
2022/05/28 03:28:11;;;;;;;6.70;6.40;;;;;;;23.71;39.69;100506.59;5033950;28;20099;-63
2022/05/28 03:30:37;;;;;;;6.68;6.38;;;;;;;23.22;40.24;100508.69;5034662;28;20028;-63
2022/05/28 03:33:02;;;;;;;6.72;6.43;;;;;;;24.61;38.21;100506.47;5034919;28;20025;-63
2022/05/28 03:35:28;;;;;;;7.00;6.70;;;;;;;24.92;36.68;100501.91;5038188;28;20079;-63
2022/05/28 03:37:54;;;;;;;6.90;6.60;;;;;;;26.05;35.24;100497.94;5033878;28;20095;-63
2022/05/28 03:40:19;;;;;;;6.88;6.57;;;;;;;25.84;34.64;100496.41;5034736;28;20029;-62
2022/05/28 03:42:44;;;;;;;6.80;6.50;;;;;;;25.73;34.62;100495.63;5033699;28;20533;-63
2022/05/28 03:45:10;;;;;;;6.70;6.40;;;;;;;25.70;33.78;100485.25;5034205;28;20053;-63
2022/05/28 03:47:37;;;;;;;6.93;6.63;;;;;;;25.87;34.09;100490.44;5032118;28;20029;-63
2022/05/28 03:50:03;;;;;;;7.00;6.70;;;;;;;27.08;32.55;100498.19;5034320;28;20029;-63
2022/05/28 03:52:28;;;;;;;6.97;6.68;;;;;;;27.44;32.02;100515.03;5041570;28;20048;-61
2022/05/28 03:54:54;;;;;;;6.82;6.53;;;;;;;27.67;31.28;100519.72;5034377;28;20485;-62
2022/05/28 03:57:28;;;;;;;6.80;6.50;;;;;;;27.30;31.58;100512.16;5019185;28;20099;-62
2022/05/28 03:59:54;;;;;;;6.80;6.50;;;;;;;27.41;31.48;100510.16;5034090;28;20026;-62
2022/05/28 04:02:20;;;;;;;6.90;6.60;;;;;;;25.99;33.61;100507.22;5033005;28;20038;-62
2022/05/28 04:04:46;;;;;;;6.78;6.47;;;;;;;25.76;33.69;100510.56;5029854;28;20029;-62
2022/05/28 04:07:13;;;;;;;6.90;6.60;;;;;;;25.20;34.25;100518.78;5024357;28;20033;-63
2022/05/28 04:09:39;;;;;;;6.88;6.57;;;;;;;23.12;37.86;100498.59;5037011;28;20048;-62
2022/05/28 04:12:05;;;;;;;6.72;6.43;;;;;;;21.84;41.03;100481.22;5033738;28;20027;-62
2022/05/28 04:14:30;;;;;;;6.70;6.40;;;;;;;21.23;42.72;100468.47;5033653;28;20033;-63
2022/05/28 04:16:56;;;;;;;6.60;6.30;;;;;;;22.72;39.72;100476.56;5033888;28;20108;-63
2022/05/28 04:19:21;;;;;;;7.00;6.70;;;;;;;21.09;42.71;100455.53;5032702;28;20032;-62
2022/05/28 04:21:47;;;;;;;6.90;6.60;;;;;;;20.26;45.57;100441.66;5033464;28;20393;-63
2022/05/28 04:24:12;;;;;;;6.78;6.47;;;;;;;20.62;44.38;100458.50;5034258;28;20026;-63
2022/05/28 04:26:38;;;;;;;6.90;6.60;;;;;;;19.95;46.28;100471.75;5029742;28;20436;-63
2022/05/28 04:29:04;;;;;;;6.90;6.60;;;;;;;21.58;42.16;100482.75;5033469;28;20049;-62
2022/05/28 04:31:30;;;;;;;6.88;6.57;;;;;;;20.92;43.03;100469.00;5033380;28;20060;-63
2022/05/28 04:33:55;;;;;;;6.70;6.40;;;;;;;20.56;44.58;100462.19;5030829;28;20105;-63
2022/05/28 04:36:21;;;;;;;6.82;6.53;;;;;;;23.39;37.74;100462.53;5032607;28;20096;-64
2022/05/28 04:38:47;;;;;;;7.10;6.80;;;;;;;25.72;33.61;100466.03;5032130;28;20025;-63
2022/05/28 04:41:13;;;;;;;7.07;6.78;;;;;;;26.92;31.48;100479.22;5033403;28;20033;-63
2022/05/28 04:43:38;;;;;;;7.15;6.85;;;;;;;27.34;30.37;100485.97;5026301;28;20116;-63
2022/05/28 04:46:04;;;;;;;6.80;6.50;;;;;;;27.83;29.54;100497.75;5032046;28;20046;-64
2022/05/28 04:48:29;;;;;;;7.40;7.10;;;;;;;27.89;29.18;100485.69;5033052;28;20025;-61
2022/05/28 04:50:55;;;;;;;7.20;6.90;;;;;;;27.41;29.92;100475.56;5031660;28;20036;-63
2022/05/28 04:53:20;;;;;;;6.85;6.55;;;;;;;26.99;30.77;100485.16;5031923;28;20079;-62
2022/05/28 04:55:46;;;;;;;7.20;6.90;;;;;;;26.83;30.85;100499.19;5032504;28;20031;-61
2022/05/28 04:58:12;;;;;;;7.03;6.72;;;;;;;27.72;29.28;100491.63;5033587;28;20117;-62
2022/05/28 05:00:39;;;;;;;7.10;6.80;;;;;;;27.30;30.21;100500.47;5033017;28;20033;-66
2022/05/28 05:03:05;;;;;;;6.97;6.68;;;;;;;26.29;31.88;100500.81;5032817;28;20032;-63
2022/05/28 05:05:31;;;;;;;7.10;6.80;;;;;;;27.29;30.62;100507.81;5032921;28;20029;-64
2022/05/28 05:07:56;;;;;;;7.38;7.07;;;;;;;29.07;27.89;100504.81;5033125;28;20102;-62
2022/05/28 05:10:22;;;;;;;7.20;6.90;;;;;;;29.58;27.31;100496.53;5031064;28;20029;-64
2022/05/28 05:12:48;;;;;;;7.20;6.90;;;;;;;30.55;26.01;100494.53;5032268;28;20048;-63
2022/05/28 05:15:13;;;;;;;7.20;6.90;;;;;;;30.07;26.71;100496.97;5031966;28;20052;-62
2022/05/28 05:17:39;;;;;;;7.18;6.88;;;;;;;29.70;26.70;100485.13;5031828;28;20052;-64
2022/05/28 05:20:06;;;;;;;7.35;7.05;;;;;;;30.35;25.59;100487.63;5032503;28;20021;-64
2022/05/28 05:22:32;;;;;;;7.10;6.80;;;;;;;29.16;27.51;100487.44;5031919;28;20428;-63
2022/05/28 05:24:58;;;;;;;7.53;7.22;;;;;;;31.45;25.11;100495.38;5018625;28;20033;-63
2022/05/28 05:27:24;;;;;;;7.40;7.10;;;;;;;31.27;24.80;100486.25;5025299;28;20029;-64
2022/05/28 05:29:49;;;;;;;7.40;7.10;;;;;;;31.32;25.17;100482.56;5028682;28;20029;-63
2022/05/28 05:32:15;;;;;;;7.18;6.88;;;;;;;32.40;23.18;100497.66;5032853;28;20048;-63
2022/05/28 05:34:42;;;;;;;7.32;7.03;;;;;;;32.59;22.88;100506.38;5029454;28;20037;-65
2022/05/28 05:37:08;;;;;;;7.40;7.10;;;;;;;31.40;23.93;100506.47;5027885;28;20497;-62
2022/05/28 05:39:33;;;;;;;7.40;7.10;;;;;;;31.78;23.81;100498.59;5030420;28;20028;-63
2022/05/28 05:41:59;;;;;;;7.40;7.10;;;;;;;31.34;23.89;100494.84;5027640;28;20032;-64
2022/05/28 05:44:25;;;;;;;7.30;7.00;;;;;;;31.95;23.57;100492.38;5030479;28;20132;-64
2022/05/28 05:46:50;;;;;;;7.10;6.80;;;;;;;31.67;24.10;100493.72;5030548;28;20120;-63
2022/05/28 05:49:16;;;;;;;7.20;6.90;;;;;;;31.14;24.56;100500.00;5031864;28;20400;-62
2022/05/28 05:51:44;;;;;;;7.10;6.80;;;;;;;31.55;24.23;100495.09;5032718;28;20472;-63
2022/05/28 05:54:10;;;;;;;7.00;6.70;;;;;;;32.44;24.00;100493.94;5031650;28;20361;-62
2022/05/28 05:56:36;;;;;;;7.18;6.88;;;;;;;31.89;23.52;100480.75;5031124;28;20031;-62
2022/05/28 05:59:01;;;;;;;7.18;6.88;;;;;;;30.38;24.99;100484.25;5031872;28;20081;-62
2022/05/28 06:01:27;;;;;;;7.10;6.80;;;;;;;30.57;25.48;100475.09;5029012;28;20041;-63
2022/05/28 06:03:52;;;;;;;7.20;6.90;;;;;;;27.97;28.81;100482.31;5028530;28;20029;-62
2022/05/28 06:06:19;;;;;;;7.18;6.88;;;;;;;31.45;24.13;100486.34;5031997;28;20025;-62
2022/05/28 06:08:45;;;;;;;7.10;6.80;;;;;;;31.24;24.78;100477.88;5031397;28;20116;-62
2022/05/28 06:11:11;;;;;;;7.00;6.70;;;;;;;31.61;23.80;100493.84;5033663;28;20610;-61
2022/05/28 06:13:36;;;;;;;7.20;6.90;;;;;;;30.90;25.07;100479.22;5031355;28;20029;-63
2022/05/28 06:16:02;;;;;;;7.03;6.72;;;;;;;32.20;23.19;100473.53;5017235;28;20105;-62
2022/05/28 06:18:29;;;;;;;7.10;6.80;;;;;;;32.80;22.74;100481.81;5030828;28;20033;-63
2022/05/28 06:20:55;;;;;;;7.20;6.90;;;;;;;33.23;22.11;100478.22;5029156;28;20033;-62
2022/05/28 06:23:21;;;;;;;7.15;6.85;;;;;;;33.56;21.08;100475.66;5031068;28;20488;-61
2022/05/28 06:25:47;;;;;;;7.32;7.03;;;;;;;32.32;22.95;100473.75;5030327;28;20030;-63
2022/05/28 06:28:13;;;;;;;7.13;6.82;;;;;;;32.35;22.73;100481.34;5031334;28;20026;-63
2022/05/28 06:30:40;;;;;;;7.20;6.90;;;;;;;33.30;21.83;100477.69;5031632;28;20029;-62
2022/05/28 06:33:06;;;;;;;7.00;6.70;;;;;;;31.62;23.90;100473.50;5027471;28;20500;-62
2022/05/28 06:35:32;;;;;;;7.18;6.88;;;;;;;33.18;21.63;100462.69;5031337;28;20026;-62
2022/05/28 06:37:58;;;;;;;7.10;6.80;;;;;;;34.28;20.39;100477.38;5030840;28;20059;-63
2022/05/28 06:40:25;;;;;;;7.00;6.70;;;;;;;32.31;22.33;100469.34;5031048;28;20049;-63
2022/05/28 06:42:51;;;;;;;6.78;6.47;;;;;;;31.01;24.25;100469.63;5031194;28;20112;-63
2022/05/28 06:45:17;;;;;;;6.90;6.60;;;;;;;30.28;24.88;100470.81;5031187;28;20046;-63
2022/05/28 06:47:45;;;;;;;7.00;6.70;;;;;;;30.45;25.03;100468.22;5031354;28;20024;-63
2022/05/28 06:52:57;;;;;;;7.00;6.70;;;;;;;32.54;23.09;100470.84;5028835;28;20439;-63
2022/05/28 06:55:23;;;;;;;6.88;6.57;;;;;;;31.57;24.10;100476.38;5026429;28;20025;-63
2022/05/28 06:57:50;;;;;;;7.05;6.75;;;;;;;32.67;22.31;100482.78;5031206;28;20452;-62
2022/05/28 07:00:16;;;;;;;6.90;6.60;;;;;;;33.22;22.28;100474.66;5031979;28;20036;-63
2022/05/28 07:02:42;;;;;;;7.38;7.07;;;;;;;33.24;22.19;100469.63;5037029;28;20486;-63
2022/05/28 07:05:14;;;;;;;7.40;7.10;;;;;;;34.12;20.83;100483.84;5035243;28;20029;-63
2022/05/28 07:07:39;;;;;;;7.30;7.00;;;;;;;34.44;20.38;100487.84;5034915;28;20025;-63
2022/05/28 07:10:06;;;;;;;7.20;6.90;;;;;;;31.33;23.59;100479.50;5033249;28;20590;-64
2022/05/28 07:12:32;;;;;;;6.88;6.57;;;;;;;29.87;25.59;100477.09;5034376;28;20104;-65
2022/05/28 07:14:58;;;;;;;6.90;6.60;;;;;;;30.22;25.32;100480.25;5036487;28;20117;-63
2022/05/28 07:17:23;;;;;;;6.90;6.60;;;;;;;31.05;24.11;100473.34;5038547;28;20065;-62
2022/05/28 07:19:50;;;;;;;6.75;6.45;;;;;;;31.16;24.04;100486.81;5034786;28;20516;-63
2022/05/28 07:22:15;;;;;;;7.13;6.82;;;;;;;31.45;23.23;100478.13;5035076;28;20017;-64
2022/05/28 07:24:41;;;;;;;7.20;6.90;;;;;;;31.46;22.87;100482.50;5034714;28;20473;-63
2022/05/28 07:27:07;;;;;;;6.80;6.50;;;;;;;32.18;22.48;100471.94;5028147;28;20469;-63
2022/05/28 07:29:32;;;;;;;6.70;6.40;;;;;;;29.85;25.43;100465.66;5040410;28;20024;-64
2022/05/28 07:31:58;;;;;;;6.85;6.55;;;;;;;28.06;27.58;100462.31;5041476;28;20083;-63
2022/05/28 07:34:23;;;;;;;6.70;6.40;;;;;;;27.81;28.09;100465.34;5034672;28;20120;-63
2022/05/28 07:36:49;;;;;;;6.60;6.30;;;;;;;26.14;30.60;100451.97;5034808;28;20044;-62
2022/05/28 07:39:15;;;;;;;6.80;6.50;;;;;;;26.07;30.36;100460.44;5034387;28;20530;-63
2022/05/28 07:41:41;;;;;;;7.03;6.72;;;;;;;28.06;28.00;100461.50;5034161;28;20032;-63
2022/05/28 07:44:06;;;;;;;7.07;6.78;;;;;;;27.59;28.34;100452.19;5038313;28;20037;-64
2022/05/28 07:46:33;;;;;;;7.05;6.75;;;;;;;28.56;27.04;100456.44;5034034;28;20038;-63
2022/05/28 07:49:00;;;;;;;7.00;6.70;;;;;;;29.51;26.00;100448.84;5034275;28;20120;-65
2022/05/28 07:51:26;;;;;;;6.90;6.60;;;;;;;28.20;27.99;100448.72;5034220;28;20040;-64
2022/05/28 07:53:52;;;;;;;6.95;6.65;;;;;;;28.18;27.38;100450.94;5034099;28;20025;-63
2022/05/28 07:56:18;;;;;;;6.78;6.47;;;;;;;28.81;26.36;100436.13;5034935;28;20033;-63
2022/05/28 07:58:44;;;;;;;6.63;6.32;;;;;;;28.66;26.93;100420.81;5035214;28;20155;-63
2022/05/28 08:01:23;;;;;;;6.80;6.50;;;;;;;27.70;29.02;100433.88;5034304;28;20029;-63
2022/05/28 08:03:50;;;;;;;6.80;6.50;;;;;;;27.48;29.19;100439.81;5033940;28;20041;-63
2022/05/28 08:06:17;;;;;;;6.90;6.60;;;;;;;27.98;28.40;100432.13;5034105;28;20037;-62
2022/05/28 08:08:43;;;;;;;6.90;6.60;;;;;;;29.25;26.99;100432.13;5033765;28;20013;-63
2022/05/28 08:11:09;;;;;;;7.00;6.70;;;;;;;29.03;27.06;100432.78;5033890;28;20480;-64
2022/05/28 08:13:35;;;;;;;6.90;6.60;;;;;;;26.60;29.96;100428.06;5028159;28;20033;-63
2022/05/28 08:16:01;;;;;;;6.80;6.50;;;;;;;21.69;38.28;100425.94;5021505;28;20037;-64
2022/05/28 08:18:27;;;;;;;7.00;6.70;;;;;;;24.48;34.86;100426.44;5025215;28;20401;-64
2022/05/28 08:23:40;;;;;;;6.95;6.65;;;;;;;25.30;33.24;100434.56;5033533;28;20088;-62
2022/05/28 08:26:07;;;;;;;6.78;6.47;;;;;;;25.16;33.36;100430.78;5024797;28;20026;-64
2022/05/28 08:28:34;;;;;;;7.00;6.70;;;;;;;25.06;33.85;100437.06;5025449;28;20028;-64
2022/05/28 08:30:59;;;;;;;6.63;6.32;;;;;;;25.35;33.19;100432.66;5030629;28;20026;-64
2022/05/28 08:33:25;;;;;;;6.75;6.45;;;;;;;24.51;35.12;100441.34;5023900;28;20024;-62
2022/05/28 08:35:51;;;;;;;6.95;6.65;;;;;;;24.26;35.75;100437.47;5030049;28;20159;-63
2022/05/28 08:38:20;;;;;;;6.75;6.45;;;;;;;23.94;36.52;100428.69;5033602;28;20029;-62
2022/05/28 08:40:54;;;;;;;6.95;6.65;;;;;;;23.30;38.11;100437.84;5033709;28;20052;-63
2022/05/28 08:43:20;;;;;;;6.55;6.25;;;;;;;23.04;39.32;100434.13;5033646;28;20079;-63
2022/05/28 08:45:49;;;;;;;7.03;6.72;;;;;;;23.74;37.84;100448.41;5033348;28;20413;-63
2022/05/28 08:48:20;;;;;;;6.53;6.22;;;;;;;23.85;37.57;100450.06;5032940;28;20022;-64
2022/05/28 08:51:08;;;;;;;6.80;6.50;;;;;;;23.25;39.85;100464.03;5033122;28;20061;-62
2022/05/28 08:53:39;;;;;;;6.97;6.68;;;;;;;23.01;41.47;100459.00;5029375;28;20040;-63
2022/05/28 08:56:05;;;;;;;6.60;6.30;;;;;;;22.34;42.85;100456.72;5033103;28;20030;-63
2022/05/28 08:58:33;;;;;;;6.68;6.38;;;;;;;22.37;43.81;100456.22;5031540;28;20056;-63
2022/05/28 09:01:10;;;;;;;6.88;6.57;;;;;;;22.40;43.42;100447.59;5032939;28;20021;-63
2022/05/28 09:03:50;;;;;;;7.03;6.72;;;;;;;22.50;43.97;100455.00;5032952;28;20021;-64
2022/05/28 09:06:38;;;;;;;6.70;6.40;;;;;;;22.08;43.51;100458.31;5032733;28;20021;-63
2022/05/28 09:09:08;;;;;;;6.80;6.50;;;;;;;22.01;43.63;100447.66;5016206;28;20129;-64
2022/05/28 09:11:39;;;;;;;6.53;6.22;;;;;;;21.98;43.07;100453.59;5032955;28;20445;-64
2022/05/28 09:14:20;;;;;;;6.60;6.30;;;;;;;21.82;43.60;100454.47;5032624;28;20053;-63
2022/05/28 09:16:47;;;;;;;6.90;6.60;;;;;;;21.16;45.21;100445.41;5032528;28;20597;-63
2022/05/28 09:19:19;;;;;;;7.00;6.70;;;;;;;21.51;45.58;100447.81;5031928;28;20052;-63
2022/05/28 09:21:46;;;;;;;6.90;6.60;;;;;;;22.33;42.61;100431.59;5032181;28;20032;-63
2022/05/28 09:24:39;;;;;;;6.70;6.40;;;;;;;18.61;50.42;100447.31;5032346;28;20388;-64
2022/05/28 09:27:10;;;;;;;6.72;6.43;;;;;;;20.52;47.04;100448.38;5031294;28;20065;-63
2022/05/28 09:30:07;;;;;;;6.90;6.60;;;;;;;24.13;38.99;100445.28;5032120;28;20069;-63
2022/05/28 09:32:55;;;;;;;7.10;6.80;;;;;;;21.97;42.35;100448.44;5032119;28;20014;-64
2022/05/28 09:35:44;;;;;;;6.80;6.50;;;;;;;22.89;40.60;100445.63;5024859;28;20037;-63
2022/05/28 09:38:33;;;;;;;6.78;6.47;;;;;;;23.42;39.31;100445.75;5029669;28;20030;-63
2022/05/28 09:41:36;;;;;;;6.70;6.40;;;;;;;23.44;37.51;100449.84;5027647;28;20511;-63
2022/05/28 09:44:27;;;;;;;6.90;6.60;;;;;;;23.39;38.52;100441.69;5022604;28;20033;-63
2022/05/28 09:46:52;;;;;;;6.65;6.35;;;;;;;23.55;37.73;100436.34;5019548;28;20057;-63
2022/05/28 09:49:19;;;;;;;6.63;6.32;;;;;;;23.44;37.67;100447.13;5031993;28;20106;-64
2022/05/28 09:52:08;;;;;;;6.78;6.47;;;;;;;23.07;37.55;100441.75;5031931;28;20366;-63
2022/05/28 09:54:35;;;;;;;6.50;6.20;;;;;;;23.58;36.67;100443.97;5027184;28;20053;-64
2022/05/28 09:57:10;;;;;;;6.57;6.28;;;;;;;23.40;36.92;100437.88;5025683;28;20041;-63
2022/05/28 09:59:44;;;;;;;6.90;6.60;;;;;;;24.13;35.71;100434.44;5020819;28;20025;-63
2022/05/28 10:02:21;;;;;;;6.82;6.53;;;;;;;23.81;35.90;100435.44;5031827;28;20079;-63
2022/05/28 10:05:16;;;;;;;6.90;6.60;;;;;;;23.57;36.22;100450.44;5027376;28;20080;-63
2022/05/28 10:07:50;;;;;;;6.63;6.32;;;;;;;22.99;37.65;100438.66;5027263;28;20159;-63
2022/05/28 10:10:22;;;;;;;6.80;6.50;;;;;;;23.12;36.79;100438.25;5031765;28;20025;-64
2022/05/28 10:12:49;;;;;;;6.60;6.30;;;;;;;23.19;36.45;100438.81;5031630;28;20025;-63
2022/05/28 10:15:28;;;;;;;6.60;6.30;;;;;;;22.59;37.76;100431.81;5031861;28;20029;-62
2022/05/28 10:17:59;;;;;;;6.57;6.28;;;;;;;22.41;38.40;100429.50;5031721;28;20060;-64
2022/05/28 10:20:25;;;;;;;6.50;6.20;;;;;;;21.10;41.00;100422.94;5031599;28;20033;-63
2022/05/28 10:22:53;;;;;;;6.50;6.20;;;;;;;21.41;40.29;100416.13;5031478;28;20025;-63
2022/05/28 10:25:37;;;;;;;7.22;6.93;;;;;;;21.50;40.64;100411.91;5027885;28;20064;-63
2022/05/28 10:28:03;;;;;;;6.63;6.33;;;;;;;21.69;40.54;100415.16;5020177;28;20018;-63
2022/05/28 10:30:33;;;;;;;6.60;6.30;;;;;;;22.02;40.06;100416.06;5031264;28;20095;-63
2022/05/28 10:33:08;;;;;;;6.50;6.20;;;;;;;21.87;40.72;100407.78;5031274;28;20104;-64
2022/05/28 10:35:34;;;;;;;6.70;6.40;;;;;;;21.72;40.27;100416.53;5031511;28;20040;-61
2022/05/28 10:38:12;;;;;;;6.50;6.20;;;;;;;21.69;40.43;100420.53;5035281;28;20481;-63
2022/05/28 10:40:53;;;;;;;6.70;6.40;;;;;;;22.12;39.62;100424.34;5035581;28;20037;-61
2022/05/28 10:43:24;;;;;;;6.90;6.60;;;;;;;21.27;40.90;100419.38;5035817;28;20112;-64
2022/05/28 10:46:14;;;;;;;6.60;6.30;;;;;;;21.92;39.72;100422.19;5035209;28;20056;-64
2022/05/28 10:48:48;;;;;;;6.45;6.15;;;;;;;22.04;39.16;100430.16;5025215;28;20045;-63
2022/05/28 10:52:01;;;;;;;6.50;6.20;;;;;;;21.00;40.96;100420.06;5035046;28;20048;-62
2022/05/28 10:55:06;;;;;;;6.57;6.28;;;;;;;21.87;40.66;100421.28;5035044;28;20440;-64
2022/05/28 10:57:47;;;;;;;6.72;6.43;;;;;;;22.30;39.25;100423.16;5010912;28;20467;-63
2022/05/28 11:00:21;;;;;;;6.50;6.20;;;;;;;22.41;38.98;100413.28;5035459;28;20051;-64
2022/05/28 11:02:58;;;;;;;6.60;6.30;;;;;;;22.27;40.14;100407.47;5029637;28;20397;-63
2022/05/28 11:05:43;;;;;;;6.70;6.40;;;;;;;21.95;40.44;100400.06;5024922;28;20033;-63
2022/05/28 11:08:29;;;;;;;6.70;6.40;;;;;;;21.96;40.88;100406.25;5034971;28;20036;-64
2022/05/28 11:11:03;;;;;;;6.68;6.38;;;;;;;21.48;41.15;100407.84;5034847;28;20445;-64
2022/05/28 11:14:01;;;;;;;6.60;6.30;;;;;;;21.46;40.62;100399.19;5020396;28;20036;-62
2022/05/28 11:16:39;;;;;;;6.55;6.25;;;;;;;20.79;41.91;100396.56;5030815;28;20504;-63
2022/05/28 11:19:20;;;;;;;6.80;6.50;;;;;;;21.06;41.61;100386.72;5027874;28;20033;-63
2022/05/28 11:21:58;;;;;;;6.90;6.60;;;;;;;21.14;41.73;100388.16;5022972;28;20033;-63
2022/05/28 11:24:41;;;;;;;6.70;6.40;;;;;;;20.29;43.64;100394.59;5034534;28;20025;-64
2022/05/28 11:27:28;;;;;;;6.63;6.32;;;;;;;20.46;44.90;100386.56;5034635;28;20045;-63
2022/05/28 11:30:12;;;;;;;6.70;6.40;;;;;;;20.36;45.88;100381.78;5034625;28;20032;-64
2022/05/28 11:33:05;;;;;;;6.43;6.13;;;;;;;20.14;46.42;100373.56;5034802;28;20021;-63
2022/05/28 11:35:53;;;;;;;6.60;6.30;;;;;;;20.00;45.72;100378.44;5034434;28;20041;-62
2022/05/28 11:38:30;;;;;;;6.97;6.68;;;;;;;19.96;47.16;100379.94;5034241;28;20030;-64
2022/05/28 11:41:07;;;;;;;6.80;6.50;;;;;;;19.05;47.33;100379.63;5034383;28;20025;-63
2022/05/28 11:43:43;;;;;;;7.15;6.85;;;;;;;19.36;47.34;100374.94;5033935;28;20037;-63